Time;durP1;ratioP1;P1;durP2;ratioP2;P2;SDS_P1;SDS_P2;PMS_P1;PMS_P2;Temp;Humidity;BMP_temperature;BMP_pressure;BME280_temperature;BME280_humidity;BME280_pressure;Samples;Min_cycle;Max_cycle;Signal;HPM_P1;HPM_P2
2024/04/25 00:01:18;;;;;;;20.27;11.53;;;;;;;6.07;84.55;99058.47;1778804;80;25581;-63
2024/04/25 00:03:48;;;;;;;15.00;10.68;;;;;;;6.06;84.54;99061.46;1778713;79;25607;-63
2024/04/25 00:06:14;;;;;;;13.45;10.25;;;;;;;6.04;84.44;99060.42;1778920;79;25736;-62
2024/04/25 00:08:41;;;;;;;14.83;11.08;;;;;;;6.05;84.47;99059.89;1778997;80;25595;-63
2024/04/25 00:11:07;;;;;;;13.88;9.95;;;;;;;6.03;84.39;99060.73;1778990;79;27823;-63
2024/04/25 00:13:34;;;;;;;14.00;10.05;;;;;;;6.03;84.40;99060.73;1778748;80;25343;-62
2024/04/25 00:16:00;;;;;;;16.07;11.03;;;;;;;6.02;84.34;99062.63;1778879;80;25428;-63
2024/04/25 00:18:28;;;;;;;15.93;10.98;;;;;;;6.01;84.26;99062.41;1778831;79;25536;-62
2024/04/25 00:20:57;;;;;;;14.18;10.65;;;;;;;6.00;84.28;99062.16;1778903;79;25530;-63
2024/04/25 00:23:24;;;;;;;14.00;10.78;;;;;;;6.01;84.34;99065.09;1778327;80;27450;-61
2024/04/25 00:25:50;;;;;;;14.60;10.35;;;;;;;6.00;84.43;99063.50;1777849;80;25847;-61
2024/04/25 00:28:16;;;;;;;14.20;10.75;;;;;;;6.01;84.53;99065.63;1780073;80;25769;-61
2024/04/25 00:30:42;;;;;;;13.65;11.10;;;;;;;5.98;84.63;99062.45;1773599;80;25469;-62
2024/04/25 00:33:08;;;;;;;14.87;10.82;;;;;;;5.99;84.72;99064.58;1773682;79;25394;-61
2024/04/25 00:35:34;;;;;;;15.43;11.38;;;;;;;5.98;84.75;99058.44;1773648;79;28084;-62
2024/04/25 00:38:01;;;;;;;15.13;11.20;;;;;;;5.98;84.77;99060.33;1773558;80;25590;-62
2024/04/25 00:40:27;;;;;;;16.82;11.78;;;;;;;5.97;84.90;99056.84;1773658;79;25384;-63
2024/04/25 00:42:53;;;;;;;16.37;12.23;;;;;;;5.98;85.08;99057.65;1773615;80;25386;-62
2024/04/25 00:45:20;;;;;;;14.43;11.33;;;;;;;5.96;85.07;99055.27;1773650;80;25624;-60
2024/04/25 00:47:47;;;;;;;16.93;10.85;;;;;;;5.95;84.98;99050.18;1773602;80;27854;-61
2024/04/25 00:50:15;;;;;;;17.37;11.63;;;;;;;5.94;85.03;99051.27;1773546;79;25875;-61
2024/04/25 00:52:41;;;;;;;14.30;10.58;;;;;;;5.93;85.07;99054.51;1773614;80;25643;-61
2024/04/25 00:55:08;;;;;;;15.43;11.08;;;;;;;5.92;85.13;99052.91;1773586;80;25560;-61
2024/04/25 00:57:37;;;;;;;13.55;10.85;;;;;;;5.91;85.16;99056.72;1773653;79;25610;-61
2024/04/25 01:00:07;;;;;;;17.52;12.73;;;;;;;5.91;85.19;99058.62;1773772;79;27484;-61
2024/04/25 01:02:37;;;;;;;16.70;12.60;;;;;;;5.89;85.19;99052.73;1773560;80;25566;-62
2024/04/25 01:05:06;;;;;;;18.40;12.82;;;;;;;5.87;85.17;99057.06;1763122;80;25408;-61
2024/04/25 01:07:32;;;;;;;15.77;11.80;;;;;;;5.85;85.31;99052.56;1773824;79;25406;-61
2024/04/25 01:09:58;;;;;;;17.23;12.43;;;;;;;5.85;85.33;99055.80;1773642;79;25562;-60
2024/04/25 01:12:26;;;;;;;18.92;12.85;;;;;;;5.83;85.40;99053.42;1773610;79;28498;-61
2024/04/25 01:14:54;;;;;;;20.85;13.20;;;;;;;5.81;85.33;99048.92;1773579;79;25537;-61
2024/04/25 01:17:20;;;;;;;18.90;13.65;;;;;;;5.77;85.45;99056.80;1773589;79;25456;-65
2024/04/25 01:19:46;;;;;;;22.37;13.60;;;;;;;5.76;85.41;99055.77;1773617;79;25588;-62
2024/04/25 01:22:13;;;;;;;20.05;12.78;;;;;;;5.73;85.42;99048.32;1773653;79;25406;-61
2024/04/25 01:24:39;;;;;;;18.17;13.00;;;;;;;5.72;85.44;99050.75;1773599;79;28108;-61
2024/04/25 01:27:08;;;;;;;16.60;12.82;;;;;;;5.70;85.42;99053.73;1773241;79;25377;-60
2024/04/25 01:29:36;;;;;;;18.37;13.30;;;;;;;5.68;85.42;99055.94;1773780;79;25652;-61
2024/04/25 01:32:05;;;;;;;18.70;13.40;;;;;;;5.66;85.44;99047.97;1762990;80;26420;-61
2024/04/25 01:34:32;;;;;;;16.37;12.07;;;;;;;5.65;85.49;99055.77;1773879;79;25551;-61
2024/04/25 01:36:58;;;;;;;18.32;12.00;;;;;;;5.62;85.43;99046.45;1773569;79;28310;-61
2024/04/25 01:39:26;;;;;;;18.57;13.13;;;;;;;5.60;85.50;99053.98;1773522;79;25436;-61
2024/04/25 01:41:53;;;;;;;17.67;12.58;;;;;;;5.57;85.49;99050.04;1773581;80;25453;-61
2024/04/25 01:44:19;;;;;;;18.60;13.30;;;;;;;5.55;85.61;99044.20;1773547;79;26126;-62
2024/04/25 01:46:45;;;;;;;20.48;13.30;;;;;;;5.55;85.64;99050.09;1773637;79;25202;-61
2024/04/25 01:49:11;;;;;;;20.32;13.13;;;;;;;5.53;85.58;99059.00;1773587;80;27553;-61
2024/04/25 01:51:37;;;;;;;21.37;13.75;;;;;;;5.52;85.58;99055.53;1773498;80;25536;-61
2024/04/25 01:54:04;;;;;;;21.00;13.68;;;;;;;5.50;85.46;99059.07;1773600;80;25395;-61
2024/04/25 01:56:30;;;;;;;19.73;14.65;;;;;;;5.49;85.51;99057.48;1773583;80;26451;-61
2024/04/25 01:58:57;;;;;;;20.82;13.22;;;;;;;5.47;85.62;99054.31;1773632;80;25630;-61
2024/04/25 02:01:23;;;;;;;18.67;13.10;;;;;;;5.46;85.69;99058.08;1773575;79;28530;-62
2024/04/25 02:03:49;;;;;;;19.02;14.10;;;;;;;5.45;85.74;99059.72;1773474;79;25511;-61
2024/04/25 02:06:15;;;;;;;18.25;13.45;;;;;;;5.43;85.71;99058.68;1773535;79;25587;-62
2024/04/25 02:08:41;;;;;;;19.10;14.15;;;;;;;5.40;85.66;99060.09;1773503;79;25492;-61
2024/04/25 02:11:08;;;;;;;20.05;13.85;;;;;;;5.37;85.70;99062.04;1773579;80;25452;-61
2024/04/25 02:13:35;;;;;;;17.62;12.63;;;;;;;5.35;85.67;99061.56;1773648;80;28474;-61
2024/04/25 02:16:01;;;;;;;19.42;13.18;;;;;;;5.34;85.55;99063.98;1773620;80;25623;-61
2024/04/25 02:18:27;;;;;;;19.45;14.30;;;;;;;5.32;85.48;99066.19;1773701;80;25558;-61
2024/04/25 02:26:22;;;;;;;20.90;14.07;;;;;;;5.24;85.51;99065.56;1773794;79;28578;-60
2024/04/25 02:28:48;;;;;;;18.90;13.65;;;;;;;5.20;85.42;99066.72;1776431;80;25386;-61
2024/04/25 02:31:19;;;;;;;20.02;14.05;;;;;;;5.17;85.30;99070.00;1778974;79;25411;-63
2024/04/25 02:33:44;;;;;;;18.10;13.22;;;;;;;5.13;85.17;99063.67;1778886;79;25587;-63
2024/04/25 02:36:10;;;;;;;19.80;13.18;;;;;;;5.11;85.15;99069.07;1779021;79;25353;-61
2024/04/25 02:38:36;;;;;;;18.62;13.20;;;;;;;5.07;85.29;99068.88;1778997;80;27517;-60
2024/04/25 02:41:03;;;;;;;21.07;13.10;;;;;;;5.04;85.30;99072.98;1778903;80;25485;-61
2024/04/25 02:43:29;;;;;;;18.10;12.88;;;;;;;5.02;85.14;99079.72;1778984;80;25538;-61
2024/04/25 02:45:55;;;;;;;20.35;14.43;;;;;;;4.98;85.21;99082.20;1778964;79;25772;-62
2024/04/25 02:48:21;;;;;;;19.65;12.90;;;;;;;4.95;85.22;99085.48;1778971;80;25464;-63
2024/04/25 02:50:47;;;;;;;21.40;14.45;;;;;;;4.92;85.22;99078.59;1779001;80;27438;-62
2024/04/25 02:53:14;;;;;;;20.70;14.38;;;;;;;4.89;85.17;99083.21;1778869;80;25983;-62
2024/04/25 02:55:41;;;;;;;20.08;14.18;;;;;;;4.86;85.03;99083.28;1778976;79;25394;-62
2024/04/25 02:58:07;;;;;;;21.02;14.03;;;;;;;4.82;84.97;99084.98;1778866;80;26160;-62
2024/04/25 03:00:33;;;;;;;24.52;14.87;;;;;;;4.80;84.84;99083.94;1778938;79;25409;-62
2024/04/25 03:02:59;;;;;;;21.30;14.83;;;;;;;4.77;84.90;99091.79;1778869;80;27366;-61
2024/04/25 03:05:26;;;;;;;22.27;14.80;;;;;;;4.73;85.13;99094.25;1778794;79;25550;-63
2024/04/25 03:07:52;;;;;;;23.92;13.88;;;;;;;4.71;85.26;99094.31;1778860;79;25614;-61
2024/04/25 03:10:19;;;;;;;21.77;15.43;;;;;;;4.66;85.32;99088.50;1778846;80;25622;-61
2024/04/25 03:12:45;;;;;;;22.22;14.28;;;;;;;4.64;85.47;99097.39;1779001;79;25450;-63
2024/04/25 03:15:11;;;;;;;21.20;14.35;;;;;;;4.60;85.42;99095.86;1778975;79;28082;-62
2024/04/25 03:17:37;;;;;;;21.00;14.78;;;;;;;4.55;85.33;99095.17;1778886;79;25404;-62
2024/04/25 03:20:07;;;;;;;20.52;13.38;;;;;;;4.53;85.64;99094.66;1778954;80;25374;-62
2024/04/25 03:22:33;;;;;;;23.83;15.08;;;;;;;4.51;85.71;99101.64;1778973;79;25509;-63
2024/04/25 03:24:59;;;;;;;22.13;15.30;;;;;;;4.48;85.79;99099.58;1778897;80;25599;-61
2024/04/25 03:27:25;;;;;;;19.50;13.95;;;;;;;4.45;85.97;99102.30;1777955;79;27473;-61
2024/04/25 03:29:53;;;;;;;20.37;14.87;;;;;;;4.42;86.03;99104.22;1772019;80;25560;-60
2024/04/25 03:32:19;;;;;;;19.37;13.65;;;;;;;4.41;86.08;99102.66;1773737;80;25416;-61
2024/04/25 03:34:46;;;;;;;20.55;13.43;;;;;;;4.41;86.11;99108.53;1773679;80;25560;-60
2024/04/25 03:37:12;;;;;;;18.25;13.72;;;;;;;4.39;86.39;99111.53;1773693;79;25413;-61
2024/04/25 03:39:38;;;;;;;17.30;12.88;;;;;;;4.39;86.58;99117.41;1773640;80;27515;-61
2024/04/25 03:42:06;;;;;;;22.62;13.38;;;;;;;4.37;86.47;99121.72;1773560;80;26060;-62
2024/04/25 03:44:33;;;;;;;20.10;13.15;;;;;;;4.37;86.67;99122.27;1773629;80;25485;-62
2024/04/25 03:46:59;;;;;;;20.32;14.45;;;;;;;4.36;86.62;99129.52;1773572;80;25826;-61
2024/04/25 03:49:27;;;;;;;20.85;14.23;;;;;;;4.35;86.75;99127.92;1773497;80;25566;-62
2024/04/25 03:51:53;;;;;;;22.05;13.85;;;;;;;4.35;86.90;99125.24;1773658;80;27375;-62
2024/04/25 03:54:21;;;;;;;22.85;14.38;;;;;;;4.37;86.91;99130.30;1762548;80;25416;-61
2024/04/25 03:56:48;;;;;;;21.90;15.32;;;;;;;4.37;86.99;99132.98;1773634;80;25548;-62
2024/04/25 03:59:14;;;;;;;20.55;14.63;;;;;;;4.37;87.23;99132.43;1773604;79;25621;-62
2024/04/25 04:01:42;;;;;;;23.22;14.95;;;;;;;4.38;87.31;99140.72;1756793;80;25406;-62
2024/04/25 04:04:10;;;;;;;21.23;14.28;;;;;;;4.41;87.53;99154.05;1772310;80;26076;-62
2024/04/25 04:06:39;;;;;;;22.90;15.40;;;;;;;4.42;87.55;99146.28;1773849;79;25469;-62
2024/04/25 04:09:05;;;;;;;21.55;15.55;;;;;;;4.43;87.56;99146.53;1773716;80;25382;-61
2024/04/25 04:11:38;;;;;;;22.37;15.72;;;;;;;4.43;87.62;99154.02;1773639;79;25546;-61
2024/04/25 04:14:05;;;;;;;15.15;11.40;;;;;;;4.44;87.76;99149.45;1773779;79;25422;-61
2024/04/25 04:16:31;;;;;;;24.77;16.42;;;;;;;4.45;87.76;99147.81;1773629;79;27822;-62
2024/04/25 04:18:57;;;;;;;23.90;15.65;;;;;;;4.47;87.90;99161.70;1773542;80;25566;-62
2024/04/25 04:21:25;;;;;;;24.85;16.62;;;;;;;4.49;87.99;99162.74;1773663;79;25461;-62
2024/04/25 04:23:51;;;;;;;23.12;16.20;;;;;;;4.52;88.07;99169.41;1773580;79;25640;-62
2024/04/25 04:26:17;;;;;;;23.10;15.23;;;;;;;4.55;88.01;99170.16;1773628;79;25400;-62
2024/04/25 04:28:43;;;;;;;22.00;15.60;;;;;;;4.56;88.02;99170.39;1773982;79;27462;-61
2024/04/25 04:31:09;;;;;;;22.05;15.75;;;;;;;4.59;88.04;99175.16;1775215;80;25892;-61
2024/04/25 04:33:36;;;;;;;22.90;15.53;;;;;;;4.62;88.13;99171.34;1778853;79;25412;-62
2024/04/25 04:36:05;;;;;;;27.20;17.12;;;;;;;4.65;88.34;99176.66;1778766;80;25449;-62
2024/04/25 04:38:31;;;;;;;22.00;16.02;;;;;;;4.68;88.52;99181.41;1778878;79;25557;-63
2024/04/25 04:40:59;;;;;;;26.62;17.65;;;;;;;4.74;88.87;99186.14;1778807;79;27489;-62
2024/04/25 04:43:25;;;;;;;25.85;16.17;;;;;;;4.81;89.17;99185.20;1778734;79;25426;-61
2024/04/25 04:45:55;;;;;;;28.42;17.07;;;;;;;4.88;89.42;99183.47;1778831;79;25388;-61
2024/04/25 04:48:20;;;;;;;30.43;20.17;;;;;;;4.95;89.69;99185.98;1778632;79;26070;-62
2024/04/25 04:50:46;;;;;;;30.08;19.07;;;;;;;5.03;89.98;99183.95;1778876;79;25387;-62
2024/04/25 04:53:13;;;;;;;33.53;20.15;;;;;;;5.11;90.24;99185.14;1778800;80;27489;-61
2024/04/25 04:55:41;;;;;;;33.67;20.27;;;;;;;5.20;90.33;99182.00;1778747;79;25373;-61
2024/04/25 04:58:08;;;;;;;34.05;22.42;;;;;;;5.29;90.25;99182.08;1778806;79;25397;-61
2024/04/25 05:00:36;;;;;;;29.70;20.92;;;;;;;5.34;90.24;99175.27;1778883;80;25575;-60
2024/04/25 05:03:02;;;;;;;30.12;20.27;;;;;;;5.42;89.66;99176.45;1778841;79;25457;-61
2024/04/25 05:05:29;;;;;;;32.50;21.75;;;;;;;5.50;89.85;99185.66;1778843;80;27853;-62
2024/04/25 05:07:59;;;;;;;29.50;20.32;;;;;;;5.57;89.62;99182.83;1778687;80;25438;-61
2024/04/25 05:10:27;;;;;;;31.37;21.05;;;;;;;5.63;89.26;99198.25;1778854;80;25383;-62
2024/04/25 05:12:54;;;;;;;29.05;19.95;;;;;;;5.69;89.01;99196.27;1778745;80;26163;-62
2024/04/25 05:15:21;;;;;;;30.85;21.10;;;;;;;5.73;88.89;99192.66;1778142;79;25463;-61
2024/04/25 05:17:48;;;;;;;29.42;20.77;;;;;;;5.85;89.12;99194.80;1777661;80;27543;-61
2024/04/25 05:20:14;;;;;;;33.70;19.98;;;;;;;6.01;90.09;99197.97;1777784;80;25681;-61
2024/04/25 05:22:40;;;;;;;28.83;19.95;;;;;;;6.15;88.87;99197.90;1777945;79;25646;-63
2024/04/25 05:25:07;;;;;;;30.12;20.25;;;;;;;6.30;89.35;99199.39;1777949;79;25661;-55
2024/04/25 05:27:36;;;;;;;50.17;32.53;;;;;;;6.50;89.84;99203.47;1777943;79;25853;-63
2024/04/25 05:30:05;;;;;;;50.38;34.18;;;;;;;6.70;89.05;99206.18;1778018;79;28288;-63
2024/04/25 05:32:32;;;;;;;31.00;20.85;;;;;;;6.89;88.55;99211.31;1778573;79;25858;-56
2024/04/25 05:35:00;;;;;;;25.20;17.37;;;;;;;7.03;87.67;99211.20;1778802;79;25594;-55
2024/04/25 05:37:27;;;;;;;23.67;15.60;;;;;;;7.16;87.11;99212.20;1778761;80;26303;-54
2024/04/25 05:39:54;;;;;;;26.80;17.37;;;;;;;7.22;85.77;99212.28;1778835;80;25542;-52
2024/04/25 05:42:21;;;;;;;21.42;15.15;;;;;;;7.34;85.33;99220.56;1778769;79;28018;-52
2024/04/25 05:44:49;;;;;;;22.60;15.10;;;;;;;7.41;84.24;99213.38;1778717;79;25710;-54
2024/04/25 05:47:20;;;;;;;20.25;15.18;;;;;;;7.48;83.57;99223.90;1778931;79;25611;-55
2024/04/25 05:49:49;;;;;;;21.33;14.50;;;;;;;7.54;82.78;99225.88;1778904;80;26093;-54
2024/04/25 05:52:20;;;;;;;24.60;14.87;;;;;;;7.62;83.07;99225.66;1779106;79;25571;-52
2024/04/25 05:54:49;;;;;;;21.97;14.60;;;;;;;7.69;82.09;99225.98;1779010;79;28488;-61
2024/04/25 05:57:17;;;;;;;19.10;13.95;;;;;;;7.72;81.39;99225.36;1778829;80;25992;-62
2024/04/25 05:59:45;;;;;;;21.47;14.10;;;;;;;7.76;81.14;99232.24;1779193;79;25461;-60
2024/04/25 06:02:12;;;;;;;17.57;13.05;;;;;;;7.83;80.97;99236.59;1778883;79;26505;-61
2024/04/25 06:04:38;;;;;;;17.48;13.18;;;;;;;7.82;80.15;99237.16;1778955;79;25405;-61
2024/04/25 06:07:04;;;;;;;18.80;11.80;;;;;;;7.84;79.55;99240.88;1778911;79;27497;-61
2024/04/25 06:09:30;;;;;;;14.63;11.00;;;;;;;7.90;79.26;99246.36;1778868;79;25365;-61
2024/04/25 06:11:57;;;;;;;16.05;11.20;;;;;;;7.97;79.32;99252.63;1779016;79;25533;-61
2024/04/25 06:14:23;;;;;;;16.25;12.40;;;;;;;8.07;78.79;99257.69;1778895;79;25832;-60
2024/04/25 06:16:50;;;;;;;20.52;14.55;;;;;;;8.17;78.23;99257.91;1778971;80;25491;-63
2024/04/25 06:19:16;;;;;;;35.00;25.52;;;;;;;8.30;78.47;99256.95;1778976;79;27358;-58
2024/04/25 06:21:43;;;;;;;14.95;11.63;;;;;;;8.51;78.87;99263.05;1778890;80;25686;-59
2024/04/25 06:24:09;;;;;;;17.95;11.22;;;;;;;8.74;78.42;99260.38;1779005;80;25120;-58
2024/04/25 06:26:36;;;;;;;14.50;10.35;;;;;;;8.90;78.14;99264.69;1778970;79;25829;-60
2024/04/25 06:29:02;;;;;;;17.15;11.38;;;;;;;9.05;76.67;99265.28;1776959;79;26756;-63
2024/04/25 06:31:29;;;;;;;13.22;10.95;;;;;;;9.23;76.45;99268.69;1771677;80;27346;-63
2024/04/25 06:34:01;;;;;;;18.02;12.28;;;;;;;9.46;75.60;99270.00;1773671;79;25930;-63
2024/04/25 06:36:24;;;;;;;13.00;10.82;;;;;;;9.72;76.31;99271.75;1773551;80;25203;-64
2024/04/25 06:38:51;;;;;;;16.90;10.38;;;;;;;9.99;75.08;99269.09;1773676;80;25505;-63
2024/04/25 06:41:17;;;;;;;13.32;10.63;;;;;;;10.22;74.39;99270.13;1773765;79;25160;-64
2024/04/25 06:43:44;;;;;;;14.85;11.30;;;;;;;10.42;73.37;99282.05;1773674;80;27481;-63
2024/04/25 06:46:10;;;;;;;16.27;10.58;;;;;;;10.62;73.55;99273.67;1773607;79;25249;-63
2024/04/25 06:48:37;;;;;;;15.00;9.75;;;;;;;10.88;73.34;99278.01;1773678;80;25481;-63
2024/04/25 06:51:05;;;;;;;9.68;8.65;;;;;;;10.98;70.34;99279.73;1773676;79;26201;-63
2024/04/25 06:53:31;;;;;;;13.13;9.35;;;;;;;11.09;70.50;99280.08;1773763;79;25623;-64
2024/04/25 06:55:59;;;;;;;12.20;9.13;;;;;;;11.25;70.49;99291.02;1773716;79;27888;-64
2024/04/25 06:58:26;;;;;;;15.10;9.73;;;;;;;11.35;68.38;99285.73;1773898;79;25548;-64
2024/04/25 07:00:52;;;;;;;13.15;8.63;;;;;;;11.40;68.87;99288.21;1773733;79;25555;-64
2024/04/25 07:03:19;;;;;;;12.90;9.18;;;;;;;11.54;68.37;99289.22;1773636;80;25549;-62
2024/04/25 07:05:47;;;;;;;23.22;17.12;;;;;;;11.58;67.39;99287.43;1773614;79;25554;-60
2024/04/25 07:08:14;;;;;;;56.88;41.60;;;;;;;11.51;66.91;99298.02;1773624;79;28065;-63
2024/04/25 07:10:40;;;;;;;14.68;10.63;;;;;;;11.57;66.72;99296.09;1773647;80;25758;-62
2024/04/25 07:13:07;;;;;;;15.28;10.58;;;;;;;11.62;66.37;99294.30;1763037;80;25629;-62
2024/04/25 07:15:33;;;;;;;12.88;10.13;;;;;;;11.63;65.63;99298.58;1773681;79;25618;-62
2024/04/25 07:18:03;;;;;;;15.80;10.88;;;;;;;11.67;65.48;99303.55;1773747;79;25412;-63
2024/04/25 07:20:31;;;;;;;12.25;10.40;;;;;;;11.68;64.77;99298.34;1773854;79;32644;-63
2024/04/25 07:22:57;;;;;;;12.68;9.48;;;;;;;11.57;64.12;99303.44;1773586;80;25718;-62
2024/04/25 07:25:25;;;;;;;12.80;9.43;;;;;;;11.59;64.18;99307.41;1773705;79;25552;-63
2024/04/25 07:27:53;;;;;;;16.75;8.73;;;;;;;11.59;64.08;99313.36;1773713;80;26242;-62
2024/04/25 07:30:20;;;;;;;10.60;7.78;;;;;;;11.55;63.37;99315.97;1773784;79;25154;-60
2024/04/25 07:32:48;;;;;;;15.15;8.78;;;;;;;11.50;62.34;99318.90;1773706;79;28469;-60
2024/04/25 07:35:15;;;;;;;10.95;8.98;;;;;;;11.34;61.98;99318.79;1773649;80;25382;-63
2024/04/25 07:37:44;;;;;;;13.30;9.23;;;;;;;11.28;62.31;99319.34;1773713;79;25386;-60
2024/04/25 07:40:11;;;;;;;11.35;9.93;;;;;;;11.32;61.82;99327.82;1773764;80;25550;-55
2024/04/25 07:42:39;;;;;;;11.73;8.15;;;;;;;11.32;62.53;99321.59;1773705;79;25520;-53
2024/04/25 07:45:07;;;;;;;10.13;7.58;;;;;;;11.34;61.48;99321.50;1773700;80;27888;-60
2024/04/25 07:47:33;;;;;;;10.40;7.67;;;;;;;11.39;61.42;99329.94;1773558;80;25648;-61
2024/04/25 07:50:01;;;;;;;12.13;8.05;;;;;;;11.50;61.81;99328.95;1773706;80;25182;-62
2024/04/25 07:52:28;;;;;;;12.28;8.03;;;;;;;11.71;62.04;99324.76;1773627;79;25808;-63
2024/04/25 07:54:55;;;;;;;8.90;7.30;;;;;;;11.85;60.24;99331.17;1773631;80;25439;-60
2024/04/25 07:57:21;;;;;;;10.88;7.80;;;;;;;11.90;59.67;99330.40;1773630;80;27534;-61
2024/04/25 07:59:47;;;;;;;11.73;8.25;;;;;;;11.96;59.46;99329.62;1773585;80;25746;-61
2024/04/25 08:02:14;;;;;;;11.75;8.75;;;;;;;12.19;59.97;99325.05;1773672;79;25608;-62
2024/04/25 08:04:40;;;;;;;14.03;8.68;;;;;;;12.36;59.41;99328.86;1773693;79;25603;-61
2024/04/25 08:07:07;;;;;;;13.35;7.62;;;;;;;12.58;59.65;99326.72;1773700;80;25511;-62
2024/04/25 08:09:34;;;;;;;11.35;8.40;;;;;;;13.07;61.02;99325.11;1773631;80;27844;-61
2024/04/25 08:12:04;;;;;;;12.23;9.05;;;;;;;13.64;60.19;99325.76;1773638;80;25353;-61
2024/04/25 08:14:31;;;;;;;13.85;9.73;;;;;;;13.96;58.25;99327.03;1773833;80;25595;-61
2024/04/25 08:16:57;;;;;;;12.63;8.75;;;;;;;14.32;56.04;99328.59;1773608;79;25811;-62
2024/04/25 08:19:24;;;;;;;16.35;9.85;;;;;;;14.79;55.89;99332.82;1773721;79;25432;-62
2024/04/25 08:21:51;;;;;;;14.13;9.53;;;;;;;15.03;55.05;99324.89;1773606;79;27328;-62
2024/04/25 08:24:19;;;;;;;12.47;9.53;;;;;;;15.53;55.54;99324.36;1773524;79;25607;-62
2024/04/25 08:26:45;;;;;;;14.73;8.98;;;;;;;16.07;54.84;99327.88;1773697;79;25543;-62
2024/04/25 08:29:12;;;;;;;13.93;9.33;;;;;;;16.57;54.14;99326.36;1773513;79;25560;-62
2024/04/25 08:31:39;;;;;;;15.68;9.43;;;;;;;16.91;52.55;99327.14;1773665;80;25462;-62
2024/04/25 08:34:06;;;;;;;12.53;9.08;;;;;;;16.92;51.17;99328.69;1773633;79;28562;-62
2024/04/25 08:36:40;;;;;;;11.55;9.50;;;;;;;17.10;50.52;99330.83;1773522;80;25563;-62
2024/04/25 08:39:06;;;;;;;14.35;9.80;;;;;;;17.10;47.97;99328.10;1773673;79;25564;-62
2024/04/25 08:41:41;;;;;;;13.10;9.03;;;;;;;16.86;46.20;99326.70;1773525;80;26567;-61
2024/04/25 08:44:05;;;;;;;12.43;9.00;;;;;;;17.09;47.49;99331.39;1773399;80;25558;-62
2024/04/25 08:46:34;;;;;;;10.93;9.35;;;;;;;17.70;47.89;99324.27;1773614;79;27365;-62
2024/04/25 08:49:03;;;;;;;13.48;9.40;;;;;;;18.39;48.14;99328.98;1773581;80;25443;-63
2024/04/25 08:51:32;;;;;;;11.30;9.17;;;;;;;19.08;47.58;99341.51;1773839;80;25606;-63
2024/04/25 08:54:01;;;;;;;10.30;9.13;;;;;;;19.16;43.76;99338.98;1773772;79;25574;-63
2024/04/25 08:56:50;;;;;;;9.83;8.55;;;;;;;18.75;42.59;99340.64;1773708;80;25429;-62
2024/04/25 08:59:18;;;;;;;38.53;29.50;;;;;;;18.20;40.96;99351.97;1673659;85;27525;-63
2024/04/25 09:01:48;;;;;;;12.63;11.30;;;;;;;17.85;42.56;99338.23;1672940;85;25495;-53
2024/04/25 09:04:19;;;;;;;13.50;8.93;;;;;;;18.42;43.49;99335.63;1673039;85;25728;-56
2024/04/25 09:06:47;;;;;;;10.88;8.40;;;;;;;18.68;40.60;99340.03;1673077;85;25600;-53
2024/04/25 09:09:18;;;;;;;9.18;8.08;;;;;;;18.52;40.37;99342.31;1673045;85;25605;-55
2024/04/25 09:11:54;;;;;;;8.58;7.65;;;;;;;18.51;39.29;99338.80;1673499;85;27485;-53
2024/04/25 09:14:21;;;;;;;11.43;8.08;;;;;;;18.90;40.73;99336.79;1672549;85;25630;-55
2024/04/25 09:16:48;;;;;;;10.35;9.28;;;;;;;19.87;40.92;99340.13;1673334;85;25576;-55
2024/04/25 09:19:14;;;;;;;11.43;8.33;;;;;;;19.95;39.29;99338.95;1707908;84;25463;-56
2024/04/25 09:21:42;;;;;;;10.53;7.67;;;;;;;19.73;39.03;99336.23;1708030;84;25656;-52
2024/04/25 09:24:08;;;;;;;8.95;7.37;;;;;;;19.58;37.29;99345.63;1727852;82;28636;-52
2024/04/25 09:26:37;;;;;;;9.55;7.42;;;;;;;19.17;36.88;99354.23;1734382;82;25592;-61
2024/04/25 09:29:04;;;;;;;8.88;8.03;;;;;;;18.73;36.78;99346.50;1734536;82;25374;-61
2024/04/25 09:31:33;;;;;;;11.63;8.38;;;;;;;18.41;37.35;99346.39;1734474;82;25812;-61
2024/04/25 09:33:59;;;;;;;11.68;9.23;;;;;;;18.00;36.55;99348.72;1734585;82;25413;-61
2024/04/25 09:36:29;;;;;;;12.05;9.48;;;;;;;17.44;37.24;99349.28;1734535;82;27360;-61
2024/04/25 09:38:55;;;;;;;;;;;;;;;16.99;38.22;99348.47;1736976;82;25563;-61
2024/04/25 09:41:24;;;;;;;10.88;9.33;;;;;;;16.52;37.54;99349.31;1734473;82;25677;-61
2024/04/25 09:43:51;;;;;;;12.20;10.38;;;;;;;16.13;38.90;99349.59;1734559;82;25495;-61
2024/04/25 09:46:26;;;;;;;12.63;9.85;;;;;;;16.00;39.76;99345.52;1734515;82;25615;-61
2024/04/25 09:48:56;;;;;;;10.65;9.00;;;;;;;15.89;40.45;99346.73;1732941;82;27492;-58
2024/04/25 09:51:37;;;;;;;11.97;10.70;;;;;;;15.80;40.47;99346.19;1734397;82;25349;-59
2024/04/25 09:54:18;;;;;;;11.40;9.80;;;;;;;15.58;39.98;99345.86;1734609;82;25548;-60
2024/04/25 09:56:50;;;;;;;17.50;10.85;;;;;;;15.39;40.96;99350.81;1734538;82;25667;-61
2024/04/25 09:59:41;;;;;;;16.85;11.83;;;;;;;15.17;40.21;99351.02;1734473;81;25584;-60
2024/04/25 10:02:19;;;;;;;14.95;12.05;;;;;;;14.92;40.94;99349.98;1734464;82;28533;-60
2024/04/25 10:04:48;;;;;;;16.75;11.70;;;;;;;15.02;40.93;99346.48;1734390;82;25427;-60
2024/04/25 10:07:18;;;;;;;13.98;11.15;;;;;;;15.23;42.28;99344.11;1734414;82;25598;-60
2024/04/25 10:09:48;;;;;;;16.85;12.63;;;;;;;15.63;42.18;99344.18;1734476;82;25688;-61
2024/04/25 10:12:23;;;;;;;16.97;12.45;;;;;;;15.80;41.47;99344.27;1734520;82;25556;-60
2024/04/25 10:14:59;;;;;;;15.58;12.40;;;;;;;15.57;40.99;99348.94;1734508;82;28166;-55
2024/04/25 10:17:30;;;;;;;15.83;12.47;;;;;;;15.17;40.27;99345.58;1730993;82;25588;-55
2024/04/25 10:20:03;;;;;;;16.70;11.97;;;;;;;14.74;40.94;99362.47;1734500;82;25576;-60
2024/04/25 10:22:31;;;;;;;18.77;14.58;;;;;;;14.38;41.36;99362.51;1733998;82;25747;-60
2024/04/25 10:25:06;;;;;;;16.75;12.30;;;;;;;14.10;41.27;99358.63;1733113;82;25696;-51
2024/04/25 10:27:34;;;;;;;15.78;11.65;;;;;;;13.81;42.01;99365.36;1733966;82;28138;-52
2024/04/25 10:30:05;;;;;;;19.50;12.80;;;;;;;13.60;42.74;99362.91;1734153;82;25453;-60
2024/04/25 10:32:33;;;;;;;16.87;12.90;;;;;;;13.44;42.81;99362.34;1743244;79;25687;-59
2024/04/25 10:35:01;;;;;;;16.32;13.25;;;;;;;13.12;42.50;99372.94;1725582;82;25608;-60
2024/04/25 10:37:28;;;;;;;16.73;13.45;;;;;;;12.77;42.89;99369.48;1721759;82;25544;-59
2024/04/25 10:39:59;;;;;;;17.70;13.25;;;;;;;12.50;43.76;99374.58;1721792;83;27878;-59
2024/04/25 10:42:25;;;;;;;16.00;13.15;;;;;;;12.36;44.57;99375.50;1722034;82;25390;-59
2024/04/25 10:44:55;;;;;;;16.85;13.18;;;;;;;12.20;45.25;99381.64;1721911;83;25450;-59
2024/04/25 10:47:21;;;;;;;14.75;12.65;;;;;;;12.08;45.99;99379.73;1721795;83;25602;-60
2024/04/25 10:49:48;;;;;;;15.63;12.80;;;;;;;11.97;46.68;99388.12;1721849;82;25669;-58
2024/04/25 10:52:15;;;;;;;19.27;14.25;;;;;;;11.85;47.15;99386.72;1721800;83;27827;-58
2024/04/25 10:54:42;;;;;;;19.00;14.35;;;;;;;11.67;47.94;99392.94;1721770;83;25667;-55
2024/04/25 10:57:08;;;;;;;21.40;15.28;;;;;;;11.49;48.70;99393.16;1721882;82;25616;-59
2024/04/25 10:59:34;;;;;;;22.80;16.00;;;;;;;11.25;50.05;99393.88;1721806;83;25486;-58
2024/04/25 11:02:05;;;;;;;24.63;17.75;;;;;;;11.03;50.23;99394.52;1722014;82;25624;-58
2024/04/25 11:04:38;;;;;;;27.10;18.05;;;;;;;10.87;51.63;99396.27;1721861;83;27801;-58
2024/04/25 11:07:08;;;;;;;28.55;19.77;;;;;;;10.69;52.77;99402.94;1721794;83;25882;-59
2024/04/25 11:09:38;;;;;;;29.45;20.57;;;;;;;10.52;53.64;99414.14;1721965;83;25574;-58
2024/04/25 11:12:06;;;;;;;27.37;20.57;;;;;;;10.39;54.86;99411.13;1721823;83;25551;-59
2024/04/25 11:14:35;;;;;;;32.00;23.05;;;;;;;10.29;55.64;99420.39;1722374;82;25505;-59
2024/04/25 11:17:02;;;;;;;30.17;23.15;;;;;;;10.22;56.86;99422.82;1722110;82;27445;-58
2024/04/25 11:19:30;;;;;;;33.00;23.80;;;;;;;10.23;56.91;99414.39;1722013;82;25580;-59
2024/04/25 11:21:56;;;;;;;34.30;24.52;;;;;;;10.34;57.51;99415.38;1721862;83;25425;-58
2024/04/25 11:24:23;;;;;;;31.62;23.15;;;;;;;10.47;57.28;99422.42;1721812;83;25867;-58
2024/04/25 11:26:50;;;;;;;30.40;22.95;;;;;;;10.61;57.45;99416.78;1722009;82;25616;-59
2024/04/25 11:29:17;;;;;;;28.52;23.07;;;;;;;10.78;56.82;99414.50;1732700;82;27374;-60
2024/04/25 11:31:43;;;;;;;29.12;23.50;;;;;;;10.84;56.30;99409.91;1732651;82;25385;-59